createdAt,value
2023-03-01T06:19:30.347Z,-7.13
2023-03-01T06:29:30.594Z,-6.64
2023-03-01T06:39:30.474Z,-6.12
2023-03-01T06:49:30.548Z,-5.18
2023-03-01T06:59:30.722Z,-4.27
2023-03-01T07:09:30.493Z,-2.98
2023-03-01T07:19:30.517Z,-2.22
2023-03-01T07:29:30.574Z,0.47
2023-03-01T07:39:30.570Z,2.00
2023-03-01T07:49:30.441Z,1.38
2023-03-01T07:59:30.690Z,1.78
2023-03-01T08:09:30.579Z,2.69
2023-03-01T08:19:30.588Z,3.28
2023-03-01T08:29:30.707Z,3.24
2023-03-01T08:39:31.781Z,3.71
2023-03-01T08:49:30.798Z,4.78
2023-03-01T08:59:30.842Z,4.58
2023-03-01T09:09:30.627Z,4.54
2023-03-01T09:19:30.520Z,3.77
2023-03-01T09:29:30.676Z,3.43
2023-03-01T09:39:30.529Z,2.79
2023-03-01T09:49:30.802Z,3.27
2023-03-01T09:59:30.704Z,3.58
2023-03-01T10:09:30.862Z,3.49
2023-03-01T10:19:30.748Z,3.01
2023-03-01T10:29:30.854Z,2.88
2023-03-01T10:39:30.673Z,2.98
2023-03-01T10:49:30.864Z,3.30
2023-03-01T10:59:31.086Z,3.36
2023-03-01T11:09:30.823Z,3.50
2023-03-01T11:19:30.791Z,3.66
2023-03-01T11:29:37.258Z,3.95
2023-03-01T11:39:31.973Z,3.94
2023-03-01T11:49:31.029Z,4.41
2023-03-01T11:59:31.051Z,4.67
2023-03-01T12:09:30.912Z,4.56
2023-03-01T12:19:30.920Z,4.57
2023-03-01T12:29:30.902Z,4.71
2023-03-01T12:39:30.881Z,5.00
2023-03-01T12:49:30.939Z,5.38
2023-03-01T12:59:30.895Z,5.23
2023-03-01T13:09:30.871Z,5.64
2023-03-01T13:19:30.886Z,5.29
2023-03-01T13:29:30.870Z,5.58
2023-03-01T13:39:30.899Z,5.56
2023-03-01T13:49:44.324Z,5.75
2023-03-01T13:59:30.941Z,6.02
2023-03-01T14:09:30.937Z,5.96
2023-03-01T14:19:34.106Z,6.01
2023-03-01T14:29:30.935Z,6.09
2023-03-01T14:39:31.026Z,6.12
2023-03-01T14:49:31.013Z,5.97
2023-03-01T14:59:30.888Z,6.27
2023-03-01T15:09:31.070Z,6.27
2023-03-01T15:19:30.938Z,6.18
2023-03-01T15:29:31.234Z,6.12
2023-03-01T15:39:30.965Z,6.19
2023-03-01T15:49:31.054Z,6.13
2023-03-01T15:59:31.041Z,6.21
2023-03-01T16:09:31.137Z,6.26
2023-03-01T16:19:31.052Z,5.71
2023-03-01T16:29:31.104Z,5.30
2023-03-01T16:39:31.098Z,4.89
2023-03-01T16:49:31.030Z,4.18
2023-03-01T16:59:31.097Z,3.14
2023-03-01T17:09:31.586Z,2.76
2023-03-01T17:19:31.238Z,2.09
2023-03-01T17:29:31.087Z,1.39
2023-03-01T17:39:32.534Z,0.73
2023-03-01T17:49:31.184Z,0.53
2023-03-01T17:59:31.214Z,0.30
2023-03-01T18:09:31.225Z,0.94
2023-03-01T18:19:31.112Z,1.95
2023-03-01T18:29:31.147Z,0.45
2023-03-01T18:39:31.181Z,0.26
2023-03-01T18:49:31.183Z,-0.36
2023-03-01T18:59:31.212Z,-0.89
2023-03-01T19:09:31.187Z,-0.32
2023-03-01T19:19:31.261Z,-0.27
